createdAt,value
2023-02-07T00:01:31.047Z,0.52
2023-02-07T00:03:58.313Z,0.45
2023-02-07T00:06:30.458Z,0.44
2023-02-07T00:09:01.277Z,0.44
2023-02-07T00:11:28.534Z,0.45
2023-02-07T00:13:56.091Z,0.45
2023-02-07T00:16:24.771Z,0.45
2023-02-07T00:18:51.919Z,0.45
2023-02-07T00:21:19.812Z,0.48
2023-02-07T00:23:46.600Z,0.53
2023-02-07T00:26:16.580Z,0.59
2023-02-07T00:28:43.744Z,0.62
2023-02-07T00:31:13.529Z,0.66
2023-02-07T00:33:41.340Z,0.67
2023-02-07T00:36:10.175Z,0.70
2023-02-07T00:38:37.053Z,0.74
2023-02-07T00:41:03.978Z,0.78
2023-02-07T00:43:31.520Z,0.80
2023-02-07T00:45:59.236Z,0.81
2023-02-07T00:48:27.018Z,0.80
2023-02-07T00:50:54.253Z,0.79
2023-02-07T00:53:21.932Z,0.80
2023-02-07T00:55:48.904Z,0.80
2023-02-07T00:58:15.726Z,0.83
2023-02-07T01:00:42.793Z,0.85
2023-02-07T01:03:09.637Z,0.86
2023-02-07T01:05:36.793Z,0.85
2023-02-07T01:08:10.590Z,0.84
2023-02-07T01:10:40.925Z,0.83
2023-02-07T01:13:10.625Z,0.84
2023-02-07T01:15:39.275Z,0.86
2023-02-07T01:18:06.500Z,0.86
2023-02-07T01:20:34.246Z,0.84
2023-02-07T01:23:01.150Z,0.80
2023-02-07T01:25:27.858Z,0.77
2023-02-07T01:27:56.548Z,0.78
2023-02-07T01:30:23.231Z,0.74
2023-02-07T01:32:50.654Z,0.69
2023-02-07T01:35:17.637Z,0.65
2023-02-07T01:37:44.476Z,0.65
2023-02-07T01:40:12.243Z,0.66
2023-02-07T01:42:38.920Z,0.62
2023-02-07T01:45:22.592Z,0.61
2023-02-07T01:47:51.611Z,0.62
2023-02-07T01:50:20.385Z,0.60
2023-02-07T01:52:47.034Z,0.59
2023-02-07T01:55:16.233Z,0.57
2023-02-07T01:57:43.763Z,0.53
2023-02-07T02:00:12.232Z,0.51
2023-02-07T02:02:42.716Z,0.54
2023-02-07T02:05:10.257Z,0.58
2023-02-07T02:07:37.742Z,0.59
2023-02-07T02:10:15.243Z,0.63
2023-02-07T02:13:03.447Z,0.62
2023-02-07T02:15:42.690Z,0.62
2023-02-07T02:18:31.784Z,0.61
2023-02-07T02:21:28.190Z,0.60
2023-02-07T02:23:56.459Z,0.59
2023-02-07T02:26:53.986Z,0.59
2023-02-07T02:29:40.150Z,0.61
2023-02-07T02:32:18.837Z,0.62
2023-02-07T02:34:53.497Z,0.61
2023-02-07T02:37:35.151Z,0.61
2023-02-07T02:40:44.215Z,0.62
2023-02-07T02:43:22.391Z,0.64
2023-02-07T02:45:58.514Z,0.65
2023-02-07T02:48:26.955Z,0.66
2023-02-07T02:50:53.721Z,0.68
2023-02-07T02:53:20.430Z,0.69
2023-02-07T02:55:53.551Z,0.68
2023-02-07T02:58:26.594Z,0.69
2023-02-07T03:00:59.696Z,0.68
2023-02-07T03:03:26.394Z,0.67
2023-02-07T03:06:12.411Z,0.65
2023-02-07T03:08:46.754Z,0.61
2023-02-07T03:11:16.924Z,0.58
2023-02-07T03:13:49.934Z,0.57
2023-02-07T03:16:23.315Z,0.57
2023-02-07T03:18:58.383Z,0.59
2023-02-07T03:21:33.948Z,0.61
2023-02-07T03:24:03.119Z,0.63
2023-02-07T03:26:30.288Z,0.63
2023-02-07T03:28:57.277Z,0.66
2023-02-07T03:31:24.737Z,0.70
2023-02-07T03:33:54.369Z,0.72
2023-02-07T03:36:23.559Z,0.73
2023-02-07T03:38:50.410Z,0.73
2023-02-07T03:41:23.522Z,0.73
2023-02-07T03:43:50.296Z,0.73
2023-02-07T03:46:16.998Z,0.72
2023-02-07T03:48:44.016Z,0.74
2023-02-07T03:51:10.868Z,0.75
2023-02-07T03:53:37.594Z,0.76
2023-02-07T03:56:04.967Z,0.73
2023-02-07T03:58:32.137Z,0.67
2023-02-07T04:00:59.046Z,0.62
2023-02-07T04:03:25.977Z,0.59
2023-02-07T04:05:52.763Z,0.59
2023-02-07T04:08:19.313Z,0.58
2023-02-07T04:10:56.336Z,0.58
2023-02-07T04:13:23.334Z,0.61
2023-02-07T04:15:50.360Z,0.57
2023-02-07T04:18:16.963Z,0.54
2023-02-07T04:20:44.039Z,0.58
2023-02-07T04:23:10.777Z,0.61
2023-02-07T04:25:38.266Z,0.63
2023-02-07T04:28:05.127Z,0.66
2023-02-07T04:30:33.601Z,0.64
2023-02-07T04:33:00.567Z,0.61
2023-02-07T04:35:27.233Z,0.60
2023-02-07T04:37:53.854Z,0.61
2023-02-07T04:40:20.555Z,0.63
2023-02-07T04:42:47.114Z,0.63
2023-02-07T04:45:14.190Z,0.63
2023-02-07T04:47:41.391Z,0.60
2023-02-07T04:50:08.415Z,0.58
2023-02-07T04:52:35.315Z,0.57
2023-02-07T04:55:01.976Z,0.57
2023-02-07T04:57:28.869Z,0.57
2023-02-07T04:59:55.732Z,0.58
2023-02-07T05:02:22.683Z,0.58
2023-02-07T05:04:49.588Z,0.59
2023-02-07T05:07:16.567Z,0.59
2023-02-07T05:09:44.459Z,0.59
2023-02-07T05:12:12.280Z,0.60
2023-02-07T05:14:38.978Z,0.60
2023-02-07T05:17:05.947Z,0.59
2023-02-07T05:19:33.290Z,0.57
2023-02-07T05:21:59.917Z,0.56
2023-02-07T05:24:26.607Z,0.57
2023-02-07T05:26:53.324Z,0.60
2023-02-07T05:29:20.262Z,0.61
2023-02-07T05:32:06.993Z,0.61
2023-02-07T05:34:34.816Z,0.60
2023-02-07T05:37:01.561Z,0.54
2023-02-07T05:39:28.397Z,0.47
2023-02-07T05:41:55.089Z,0.43
2023-02-07T05:44:21.774Z,0.44
2023-02-07T05:46:52.376Z,0.44
2023-02-07T05:49:19.736Z,0.43
2023-02-07T05:51:46.511Z,0.42
2023-02-07T05:54:13.073Z,0.44
2023-02-07T05:56:39.873Z,0.44
2023-02-07T05:59:06.510Z,0.43
2023-02-07T06:01:33.253Z,0.44
2023-02-07T06:03:59.887Z,0.46
2023-02-07T06:06:26.623Z,0.46
2023-02-07T06:08:53.367Z,0.46
2023-02-07T06:11:20.313Z,0.46
2023-02-07T06:13:47.062Z,0.45
2023-02-07T06:16:14.226Z,0.42
2023-02-07T06:18:40.986Z,0.40
2023-02-07T06:21:07.796Z,0.37
2023-02-07T06:23:34.728Z,0.33
2023-02-07T06:26:01.368Z,0.33
2023-02-07T06:28:28.419Z,0.34
2023-02-07T06:30:55.318Z,0.34
2023-02-07T06:33:21.944Z,0.34
2023-02-07T06:35:49.046Z,0.38
2023-02-07T06:38:16.408Z,0.39
2023-02-07T06:40:44.372Z,0.40
2023-02-07T06:43:11.088Z,0.42
2023-02-07T06:45:38.367Z,0.42
2023-02-07T06:48:05.716Z,0.41
2023-02-07T06:50:32.764Z,0.42
2023-02-07T06:53:01.357Z,0.44
2023-02-07T06:55:29.330Z,0.43
2023-02-07T06:57:56.138Z,0.43
2023-02-07T07:00:23.315Z,0.44
2023-02-07T07:02:50.613Z,0.45
2023-02-07T07:05:17.431Z,0.45
2023-02-07T07:07:44.351Z,0.47
2023-02-07T07:10:12.396Z,0.49
2023-02-07T07:12:39.299Z,0.54
2023-02-07T07:15:06.876Z,0.58
2023-02-07T07:17:33.558Z,0.63
2023-02-07T07:20:00.184Z,0.66
2023-02-07T07:22:26.712Z,0.67
2023-02-07T07:24:53.787Z,0.67
2023-02-07T07:27:20.530Z,0.72
2023-02-07T07:29:47.113Z,0.75
2023-02-07T07:32:28.593Z,0.73
2023-02-07T07:35:00.658Z,0.70
2023-02-07T07:37:27.865Z,0.72
2023-02-07T07:39:55.272Z,0.70
2023-02-07T07:42:22.262Z,0.64
2023-02-07T07:45:07.546Z,0.61
2023-02-07T07:47:34.275Z,0.57
2023-02-07T07:50:01.739Z,0.59
2023-02-07T07:52:29.159Z,0.67
2023-02-07T07:54:55.806Z,0.72
2023-02-07T07:57:27.429Z,0.72
2023-02-07T07:59:54.852Z,0.75
2023-02-07T08:02:22.497Z,0.80
2023-02-07T08:04:49.951Z,0.81
2023-02-07T08:07:17.099Z,0.79
2023-02-07T08:09:43.820Z,0.77
2023-02-07T08:12:10.582Z,0.76
2023-02-07T08:14:37.451Z,0.72
2023-02-07T08:17:04.217Z,0.72
2023-02-07T08:19:31.181Z,0.75
2023-02-07T08:21:57.806Z,0.76
2023-02-07T08:24:24.834Z,0.75
2023-02-07T08:26:51.818Z,0.77
2023-02-07T08:29:18.658Z,0.82
2023-02-07T08:31:47.308Z,0.84
2023-02-07T08:34:13.926Z,0.87
2023-02-07T08:36:42.498Z,0.91
2023-02-07T08:39:09.193Z,0.93
2023-02-07T08:41:35.886Z,0.91
2023-02-07T08:44:02.824Z,0.88
2023-02-07T08:46:29.792Z,0.80
2023-02-07T08:48:56.628Z,0.77
2023-02-07T08:51:23.177Z,0.84
2023-02-07T08:53:49.778Z,0.85
2023-02-07T08:56:16.512Z,0.75
2023-02-07T08:58:44.112Z,0.68
2023-02-07T09:01:11.621Z,0.73
2023-02-07T09:03:38.503Z,0.86
2023-02-07T09:06:05.760Z,0.99
2023-02-07T09:08:32.497Z,1.09
2023-02-07T09:11:00.213Z,1.16
2023-02-07T09:13:27.392Z,1.25
2023-02-07T09:15:55.409Z,1.15
2023-02-07T09:18:22.809Z,0.97
2023-02-07T09:20:52.820Z,0.92
2023-02-07T09:23:19.778Z,0.91
2023-02-07T09:25:47.435Z,0.96
2023-02-07T09:28:14.786Z,1.07
2023-02-07T09:30:43.120Z,1.15
2023-02-07T09:33:10.827Z,1.13
2023-02-07T09:35:38.658Z,1.03
2023-02-07T09:38:06.019Z,0.95
2023-02-07T09:40:33.099Z,0.97
2023-02-07T09:43:52.051Z,1.02
2023-02-07T09:46:42.539Z,1.12
2023-02-07T09:49:18.990Z,1.20
2023-02-07T09:51:45.774Z,1.29
2023-02-07T09:54:30.237Z,1.35
2023-02-07T09:57:00.077Z,1.37
2023-02-07T09:59:49.302Z,1.34
2023-02-07T10:02:28.975Z,1.32
2023-02-07T10:05:00.343Z,1.30
2023-02-07T10:07:27.145Z,1.34
2023-02-07T10:09:53.805Z,1.41
2023-02-07T10:12:33.898Z,1.44
2023-02-07T10:15:06.214Z,1.45
2023-02-07T10:17:52.270Z,1.46
2023-02-07T10:20:56.417Z,1.30
2023-02-07T10:24:08.418Z,1.06
2023-02-07T10:26:49.601Z,0.98
2023-02-07T10:29:38.238Z,0.98
2023-02-07T10:32:18.549Z,0.87
2023-02-07T10:34:51.469Z,0.60
2023-02-07T10:37:21.313Z,0.32
2023-02-07T10:39:53.092Z,0.10
2023-02-07T10:42:20.000Z,-0.02
2023-02-07T10:44:46.947Z,-0.02
2023-02-07T10:47:15.945Z,0.03
2023-02-07T10:49:43.825Z,0.11
2023-02-07T10:52:19.961Z,0.22
2023-02-07T10:54:52.242Z,0.33
2023-02-07T10:57:19.415Z,0.40
2023-02-07T10:59:46.204Z,0.45
2023-02-07T11:02:30.418Z,0.46
2023-02-07T11:05:16.962Z,0.49
2023-02-07T11:08:13.389Z,0.61
2023-02-07T11:10:41.908Z,0.72
2023-02-07T11:13:14.067Z,0.76
2023-02-07T11:15:58.839Z,0.72
2023-02-07T11:18:45.057Z,0.58
2023-02-07T11:21:31.524Z,0.56
2023-02-07T11:24:20.530Z,0.50
2023-02-07T11:27:18.657Z,0.51
2023-02-07T11:29:53.392Z,0.51
2023-02-07T11:32:20.130Z,0.49
2023-02-07T11:34:49.241Z,0.56
2023-02-07T11:37:22.624Z,0.63
2023-02-07T11:39:50.378Z,0.68
2023-02-07T11:42:18.936Z,0.74
2023-02-07T11:44:47.160Z,0.75
2023-02-07T11:47:34.309Z,0.75
2023-02-07T11:50:03.410Z,0.76
2023-02-07T11:52:31.769Z,0.75
2023-02-07T11:55:00.596Z,0.69
2023-02-07T11:57:29.261Z,0.62
2023-02-07T12:00:16.501Z,0.60
2023-02-07T12:02:47.509Z,0.64
2023-02-07T12:05:20.734Z,0.68
2023-02-07T12:07:50.735Z,0.66
2023-02-07T12:10:26.356Z,0.68
2023-02-07T12:13:21.806Z,0.76
2023-02-07T12:15:50.876Z,0.85
2023-02-07T12:18:36.132Z,0.90
2023-02-07T12:21:09.080Z,0.95
2023-02-07T12:23:59.711Z,0.98
2023-02-07T12:26:38.983Z,0.99
2023-02-07T12:29:30.279Z,0.93
2023-02-07T12:31:57.225Z,0.84
2023-02-07T12:34:33.829Z,0.80
2023-02-07T12:37:30.205Z,0.72
2023-02-07T12:40:00.812Z,0.47
2023-02-07T12:42:38.238Z,0.38
2023-02-07T12:45:05.767Z,0.40
2023-02-07T12:47:50.454Z,0.39
2023-02-07T12:50:28.513Z,0.44
2023-02-07T12:53:11.210Z,0.44
2023-02-07T12:55:40.601Z,0.32
2023-02-07T12:58:49.143Z,0.17
2023-02-07T13:01:21.385Z,0.13
2023-02-07T13:04:16.175Z,0.20
2023-02-07T13:07:02.096Z,0.31
2023-02-07T13:09:37.380Z,0.42
2023-02-07T13:12:14.995Z,0.50
2023-02-07T13:14:51.553Z,0.61
2023-02-07T13:17:24.647Z,0.69
2023-02-07T13:20:06.428Z,0.75
2023-02-07T13:22:33.676Z,0.74
2023-02-07T13:25:00.632Z,0.63
2023-02-07T13:27:28.214Z,0.58
2023-02-07T13:29:55.134Z,0.46
2023-02-07T13:32:26.073Z,0.31
2023-02-07T13:35:06.840Z,0.26
2023-02-07T13:37:44.725Z,0.26
2023-02-07T13:40:29.670Z,0.23
2023-02-07T13:43:05.002Z,0.27
2023-02-07T13:45:55.281Z,0.29
2023-02-07T13:48:54.401Z,0.32
2023-02-07T13:51:47.438Z,0.34
2023-02-07T13:54:30.418Z,0.40
2023-02-07T13:57:17.431Z,0.45
2023-02-07T14:00:04.586Z,0.42
2023-02-07T14:02:40.636Z,0.37
2023-02-07T14:05:11.547Z,0.40
2023-02-07T14:07:39.214Z,0.44
2023-02-07T14:10:07.822Z,0.44
2023-02-07T14:12:36.492Z,0.37
2023-02-07T14:15:29.859Z,0.33
2023-02-07T14:18:02.622Z,0.34
2023-02-07T14:20:35.552Z,0.28
2023-02-07T14:23:02.451Z,0.11
2023-02-07T14:25:32.617Z,0.05
2023-02-07T14:28:06.749Z,0.06
2023-02-07T14:30:57.199Z,0.09
2023-02-07T14:38:12.998Z,0.17
2023-02-07T14:40:42.516Z,0.17
2023-02-07T14:43:11.982Z,0.19
2023-02-07T14:45:58.403Z,0.24
2023-02-07T14:48:48.078Z,0.29
2023-02-07T14:51:27.600Z,0.35
2023-02-07T14:54:18.663Z,0.39
2023-02-07T14:57:00.759Z,0.44
2023-02-07T14:59:48.700Z,0.63
2023-02-07T15:02:35.342Z,0.77
2023-02-07T15:05:14.953Z,0.75
2023-02-07T15:07:43.355Z,0.67
2023-02-07T15:10:34.369Z,0.59
2023-02-07T15:13:01.690Z,0.45
2023-02-07T15:15:49.699Z,0.35
2023-02-07T15:18:18.035Z,0.27
2023-02-07T15:20:49.227Z,0.18
2023-02-07T15:23:16.263Z,0.15
2023-02-07T15:25:43.325Z,0.18
2023-02-07T15:28:27.305Z,0.18
2023-02-07T15:31:15.067Z,0.15
2023-02-07T15:33:51.372Z,0.07
2023-02-07T15:36:28.607Z,-0.02
2023-02-07T15:38:56.735Z,-0.05
2023-02-07T15:41:23.566Z,-0.04
2023-02-07T15:43:59.316Z,0.02
2023-02-07T15:46:26.723Z,0.03
2023-02-07T15:48:54.842Z,0.03
2023-02-07T15:51:27.827Z,0.07
2023-02-07T15:53:56.622Z,0.09
2023-02-07T15:56:23.854Z,0.07
2023-02-07T15:58:50.922Z,0.04
2023-02-07T16:01:25.599Z,-0.03
2023-02-07T16:03:54.488Z,-0.19
2023-02-07T16:06:22.891Z,-0.43
2023-02-07T16:08:59.151Z,-0.65
2023-02-07T16:11:25.829Z,-0.76
2023-02-07T16:14:20.212Z,-0.78
2023-02-07T16:16:49.994Z,-0.83
2023-02-07T16:19:28.110Z,-0.81
2023-02-07T16:22:14.742Z,-0.73
2023-02-07T16:24:43.214Z,-0.68
2023-02-07T16:27:18.040Z,-0.67
2023-02-07T16:29:45.074Z,-0.65
2023-02-07T16:32:12.241Z,-0.63
2023-02-07T16:34:53.911Z,-0.64
2023-02-07T16:37:27.294Z,-0.60
2023-02-07T16:39:54.070Z,-0.60
2023-02-07T16:42:21.009Z,-0.63
2023-02-07T16:44:48.226Z,-0.68
2023-02-07T16:47:15.335Z,-0.73
2023-02-07T16:49:43.790Z,-0.78
2023-02-07T16:52:10.735Z,-0.82
2023-02-07T16:54:38.193Z,-0.80
2023-02-07T16:57:05.158Z,-0.81
2023-02-07T16:59:32.293Z,-0.86
2023-02-07T17:02:01.357Z,-0.93
2023-02-07T17:04:28.851Z,-0.95
2023-02-07T17:06:58.445Z,-1.03
2023-02-07T17:09:25.303Z,-1.13
2023-02-07T17:11:52.794Z,-1.15
2023-02-07T17:14:20.320Z,-1.17
2023-02-07T17:16:47.758Z,-1.20
2023-02-07T17:19:26.615Z,-1.19
2023-02-07T17:21:53.738Z,-1.20
2023-02-07T17:24:20.790Z,-1.21
2023-02-07T17:26:49.884Z,-1.26
2023-02-07T17:29:16.874Z,-1.22
2023-02-07T17:31:44.170Z,-1.16
2023-02-07T17:34:11.329Z,-1.05
2023-02-07T17:36:40.070Z,-0.95
2023-02-07T17:39:06.956Z,-0.89
2023-02-07T17:41:33.815Z,-0.84
2023-02-07T17:44:00.950Z,-0.85
2023-02-07T17:46:28.055Z,-0.90
2023-02-07T17:48:55.196Z,-1.02
2023-02-07T17:51:24.895Z,-1.23
2023-02-07T17:53:52.089Z,-1.31
2023-02-07T17:56:22.634Z,-1.32
2023-02-07T17:58:50.603Z,-1.35
2023-02-07T18:01:19.058Z,-1.41
2023-02-07T18:03:47.046Z,-1.48
2023-02-07T18:06:17.580Z,-1.54
2023-02-07T18:08:44.835Z,-1.58
2023-02-07T18:11:13.585Z,-1.54
2023-02-07T18:13:44.148Z,-1.57
2023-02-07T18:16:29.223Z,-1.62
2023-02-07T18:18:58.620Z,-1.61
2023-02-07T18:21:27.332Z,-1.60
2023-02-07T18:23:55.785Z,-1.61
2023-02-07T18:26:22.842Z,-1.65
2023-02-07T18:28:49.575Z,-1.67
2023-02-07T18:31:18.366Z,-1.68
2023-02-07T18:33:45.546Z,-1.71
2023-02-07T18:36:12.822Z,-1.79
2023-02-07T18:38:40.121Z,-1.87
2023-02-07T18:41:09.662Z,-1.92
2023-02-07T18:43:40.508Z,-1.98
2023-02-07T18:46:12.004Z,-2.00
2023-02-07T18:48:39.574Z,-1.95
2023-02-07T18:51:10.641Z,-1.89
2023-02-07T18:53:37.872Z,-1.88
2023-02-07T18:56:06.250Z,-1.92
2023-02-07T18:58:33.810Z,-1.97
2023-02-07T19:01:05.071Z,-2.00
2023-02-07T19:03:32.417Z,-2.03
2023-02-07T19:05:59.864Z,-2.05
2023-02-07T19:08:26.979Z,-2.00
2023-02-07T19:11:01.957Z,-1.90
2023-02-07T19:13:29.303Z,-1.84
2023-02-07T19:16:07.292Z,-1.79
2023-02-07T19:18:34.450Z,-1.77
2023-02-07T19:21:06.263Z,-1.82
2023-02-07T19:23:33.157Z,-1.89
2023-02-07T19:26:00.136Z,-1.96
2023-02-07T19:28:26.938Z,-1.97
2023-02-07T19:30:54.840Z,-1.93
2023-02-07T19:33:22.775Z,-1.91
2023-02-07T19:35:49.951Z,-1.90
2023-02-07T19:38:17.382Z,-1.85
2023-02-07T19:40:44.943Z,-1.82
2023-02-07T19:43:12.560Z,-1.84
2023-02-07T19:45:39.957Z,-1.90
2023-02-07T19:48:06.804Z,-1.99
2023-02-07T19:50:34.566Z,-2.01
2023-02-07T19:53:02.329Z,-2.02
2023-02-07T19:55:29.276Z,-1.99
2023-02-07T19:57:59.192Z,-1.93
2023-02-07T20:00:29.234Z,-1.88
2023-02-07T20:02:58.148Z,-1.87
2023-02-07T20:05:26.176Z,-1.88
2023-02-07T20:07:53.520Z,-1.84
2023-02-07T20:10:21.593Z,-1.83
2023-02-07T20:12:53.662Z,-1.81
2023-02-07T20:15:20.555Z,-1.79
2023-02-07T20:17:48.405Z,-1.80
2023-02-07T20:20:16.966Z,-1.78
2023-02-07T20:22:43.946Z,-1.81
2023-02-07T20:25:11.258Z,-1.83
2023-02-07T20:27:38.405Z,-1.83
2023-02-07T20:30:05.657Z,-1.94
2023-02-07T20:32:33.421Z,-2.04
2023-02-07T20:35:00.682Z,-2.05
2023-02-07T20:37:27.750Z,-2.00
2023-02-07T20:39:54.460Z,-1.95
2023-02-07T20:42:21.205Z,-1.93
2023-02-07T20:44:48.763Z,-1.90
2023-02-07T20:47:16.012Z,-1.90
2023-02-07T20:49:43.582Z,-1.94
2023-02-07T20:52:10.413Z,-1.95
2023-02-07T20:54:38.077Z,-1.95
2023-02-07T20:57:06.655Z,-1.91
2023-02-07T20:59:34.641Z,-1.86
2023-02-07T21:02:01.450Z,-1.84
2023-02-07T21:04:28.321Z,-1.83
2023-02-07T21:06:55.157Z,-1.83
2023-02-07T21:09:22.220Z,-1.83
2023-02-07T21:11:50.797Z,-1.87
2023-02-07T21:14:31.670Z,-1.84
2023-02-07T21:17:01.666Z,-1.82
2023-02-07T21:19:28.833Z,-1.86
2023-02-07T21:21:56.400Z,-1.91
2023-02-07T21:24:23.541Z,-1.99
2023-02-07T21:26:51.408Z,-2.03
2023-02-07T21:29:20.251Z,-2.04
2023-02-07T21:31:47.666Z,-2.07
2023-02-07T21:34:20.401Z,-2.09
2023-02-07T21:36:47.791Z,-2.12
2023-02-07T21:39:15.338Z,-2.18
2023-02-07T21:41:43.116Z,-2.21
2023-02-07T21:44:10.200Z,-2.22
2023-02-07T21:46:38.788Z,-2.20
2023-02-07T21:49:07.716Z,-2.16
2023-02-07T21:51:34.641Z,-2.20
2023-02-07T21:54:02.569Z,-2.28
2023-02-07T21:56:31.187Z,-2.32
2023-02-07T21:59:06.259Z,-2.43
2023-02-07T22:01:33.408Z,-2.58
2023-02-07T22:04:01.080Z,-2.65
2023-02-07T22:06:28.244Z,-2.75
2023-02-07T22:08:56.788Z,-2.83
2023-02-07T22:11:25.396Z,-2.86
2023-02-07T22:13:52.256Z,-3.00
2023-02-07T22:16:21.967Z,-3.08
2023-02-07T22:18:49.708Z,-3.03
2023-02-07T22:21:26.801Z,-2.96
2023-02-07T22:23:54.095Z,-2.91
2023-02-07T22:26:21.294Z,-2.81
2023-02-07T22:28:48.672Z,-2.75
2023-02-07T22:31:23.434Z,-2.73
2023-02-07T22:33:51.963Z,-2.71
2023-02-07T22:36:29.915Z,-2.66
2023-02-07T22:39:00.456Z,-2.76
2023-02-07T22:41:27.780Z,-2.94
2023-02-07T22:43:54.769Z,-3.11
2023-02-07T22:46:22.275Z,-3.28
2023-02-07T22:48:49.802Z,-3.46
2023-02-07T22:51:19.918Z,-3.57
2023-02-07T22:53:46.871Z,-3.62
2023-02-07T22:56:13.983Z,-3.72
2023-02-07T22:58:40.907Z,-3.71
2023-02-07T23:01:17.535Z,-3.66
2023-02-07T23:03:45.862Z,-3.61
2023-02-07T23:06:13.568Z,-3.65
2023-02-07T23:08:40.773Z,-3.77
2023-02-07T23:11:08.305Z,-3.96
2023-02-07T23:13:35.279Z,-4.14
2023-02-07T23:16:02.029Z,-4.19
2023-02-07T23:18:29.015Z,-4.11
2023-02-07T23:20:56.287Z,-4.06
2023-02-07T23:23:23.211Z,-4.09
2023-02-07T23:25:50.106Z,-4.16
2023-02-07T23:28:17.061Z,-4.22
2023-02-07T23:30:44.327Z,-4.34
2023-02-07T23:33:11.806Z,-4.42
2023-02-07T23:35:38.791Z,-4.50
2023-02-07T23:38:05.854Z,-4.62
2023-02-07T23:40:33.098Z,-4.64
2023-02-07T23:43:02.762Z,-4.63
2023-02-07T23:45:29.851Z,-4.59
2023-02-07T23:47:57.789Z,-4.53
2023-02-07T23:50:26.521Z,-4.40
2023-02-07T23:52:54.023Z,-4.27
2023-02-07T23:55:20.976Z,-4.31
2023-02-07T23:57:48.545Z,-4.39
